Waverly, Pennsylvania
Current Conditions -  °F | °C
As of 5:54 AM on Thursday 18 Dec 2014 (Local Time) from KAVP Reporting Station
Overcast Overcast  
Wind Chill: 22°   Ceiling: 3400
Heat Index: 33°   Visibility: 10mi
Dew Point: 21°   Wind: 17mph
Humidity: 61%   Direction: 300°WNW
Pressure: 29.98"   Gusts: NA
Location:  41.53°N, 75.71°W
Report Text: KAVP 181054Z 30015KT 10SM OVC034 01/M06 A2998 RMK AO2 PK WND 29026/1023 RAB0955E04 SLP158 P0000 T00061061
Loading
Personal Weather Stations






























Interactive Weather Map New forecast layout! Learn more

10-Day Weather Forecast

Advertisements
Track Severe Weather on mobile